Time;durP1;ratioP1;P1;durP2;ratioP2;P2;SDS_P1;SDS_P2;PMS_P1;PMS_P2;Temp;Humidity;BMP_temperature;BMP_pressure;BME280_temperature;BME280_humidity;BME280_pressure;Samples;Min_cycle;Max_cycle;Signal;HPM_P1;HPM_P2
2022/04/13 00:00:40;;;;;;;13.88;8.52;;;;;;;5.43;85.92;100925.28;5589847;31;32507;-64
2022/04/13 00:03:43;;;;;;;15.77;8.40;;;;;;;5.37;86.91;100925.81;5589841;31;32669;-65
2022/04/13 00:06:46;;;;;;;17.45;8.85;;;;;;;5.32;87.24;100932.37;5589509;31;32490;-63
2022/04/13 00:09:48;;;;;;;14.50;8.43;;;;;;;5.23;88.08;100936.53;5589525;31;32484;-64
2022/04/13 00:12:51;;;;;;;17.67;9.93;;;;;;;5.15;88.65;100933.69;5590243;31;34577;-63
2022/04/13 00:15:54;;;;;;;15.63;9.05;;;;;;;5.09;90.03;100932.34;5589618;31;34646;-63
2022/04/13 00:18:56;;;;;;;13.90;8.30;;;;;;;5.05;90.65;100943.25;5590615;31;33303;-63
2022/04/13 00:21:59;;;;;;;15.68;8.85;;;;;;;5.02;91.09;100943.50;5590224;31;33399;-63
2022/04/13 00:25:02;;;;;;;16.65;8.93;;;;;;;4.95;91.25;100951.00;5589436;31;33165;-64
2022/04/13 00:28:06;;;;;;;20.42;9.15;;;;;;;4.97;91.38;100953.53;5575890;31;33628;-63
2022/04/13 00:31:08;;;;;;;14.43;7.93;;;;;;;4.88;92.04;100947.19;5590572;31;33909;-63
2022/04/13 00:34:11;;;;;;;17.75;8.70;;;;;;;4.85;91.89;100947.41;5590166;31;34482;-63
2022/04/13 00:37:14;;;;;;;18.67;9.77;;;;;;;4.88;92.18;100948.97;5590135;31;33959;-64
2022/04/13 00:40:17;;;;;;;17.50;8.60;;;;;;;4.80;92.28;100944.28;5589217;31;32904;-62
2022/04/13 00:43:19;;;;;;;13.93;8.40;;;;;;;4.96;90.44;100949.22;5590005;31;35238;-63
2022/04/13 00:46:22;;;;;;;15.80;7.70;;;;;;;5.19;89.96;100949.09;5590007;31;33968;-63
2022/04/13 00:49:25;;;;;;;15.45;7.90;;;;;;;5.29;88.10;100945.75;5590431;31;34273;-63
2022/04/13 00:52:30;;;;;;;18.55;8.52;;;;;;;5.15;89.25;100946.84;5589234;31;35103;-63
2022/04/13 00:55:37;;;;;;;14.85;8.43;;;;;;;4.99;89.63;100941.91;5589996;31;35100;-63
2022/04/13 00:58:42;;;;;;;14.38;8.32;;;;;;;4.88;90.83;100952.44;5590003;31;33764;-63
2022/04/13 01:01:47;;;;;;;13.98;8.23;;;;;;;4.70;91.69;100948.56;5590232;31;34392;-63
2022/04/13 01:04:53;;;;;;;15.55;8.30;;;;;;;4.61;92.26;100946.63;5589024;31;32466;-63
2022/04/13 01:07:56;;;;;;;14.20;8.45;;;;;;;4.50;92.65;100955.34;5589566;31;34439;-63
2022/04/13 01:11:00;;;;;;;11.60;7.37;;;;;;;4.45;92.71;100951.38;5589899;31;34171;-63
2022/04/13 01:14:03;;;;;;;13.05;7.32;;;;;;;4.58;91.40;100952.97;5588993;31;34701;-64
2022/04/13 01:17:06;;;;;;;14.05;7.45;;;;;;;4.70;90.70;100949.41;5589188;31;33028;-64
2022/04/13 01:20:11;;;;;;;12.82;7.30;;;;;;;4.82;89.52;100948.47;5589846;31;35190;-64
2022/04/13 01:23:14;;;;;;;15.65;7.65;;;;;;;4.87;87.63;100957.81;5589101;31;33246;-64
2022/04/13 01:26:17;;;;;;;13.10;7.43;;;;;;;4.64;88.78;100952.53;5575928;31;32622;-67
2022/04/13 01:29:19;;;;;;;13.85;7.45;;;;;;;4.45;89.60;100952.22;5589643;31;34631;-64
2022/04/13 01:32:22;;;;;;;15.30;7.45;;;;;;;4.38;90.51;100951.84;5589658;31;33945;-64
2022/04/13 01:35:25;;;;;;;14.50;7.80;;;;;;;4.42;90.61;100957.69;5589763;31;33898;-63
2022/04/13 01:38:29;;;;;;;12.48;6.87;;;;;;;4.34;90.74;100962.69;5589537;31;34533;-64
2022/04/13 01:41:32;;;;;;;13.25;7.25;;;;;;;4.31;91.36;100971.63;5589632;31;34529;-63
2022/04/13 01:44:35;;;;;;;13.70;6.55;;;;;;;4.33;91.50;100969.72;5589562;31;33883;-64
2022/04/13 01:47:37;;;;;;;12.07;6.90;;;;;;;4.24;91.52;100978.28;5588848;31;32595;-63
2022/04/13 01:50:40;;;;;;;13.85;7.03;;;;;;;4.22;91.63;100972.28;5589496;31;34660;-63
2022/04/13 01:53:43;;;;;;;10.63;6.43;;;;;;;4.21;90.83;100981.12;5589464;31;33899;-64
2022/04/13 01:56:46;;;;;;;10.80;6.50;;;;;;;4.41;89.44;100984.06;5588780;31;32918;-64
2022/04/13 01:59:49;;;;;;;13.02;6.65;;;;;;;4.67;87.53;100991.69;5588279;31;32397;-64
2022/04/13 02:02:53;;;;;;;12.37;7.10;;;;;;;4.85;85.97;100984.19;5589229;31;34090;-64
2022/04/13 02:05:56;;;;;;;12.48;6.87;;;;;;;4.62;87.15;100988.56;5589330;31;33935;-63
2022/04/13 02:08:58;;;;;;;12.25;6.90;;;;;;;4.40;88.38;100982.41;5588349;31;32524;-63
2022/04/13 02:12:01;;;;;;;10.38;6.47;;;;;;;4.34;88.52;100984.53;5588548;31;33195;-63
2022/04/13 02:15:05;;;;;;;10.55;6.70;;;;;;;4.17;89.92;100990.16;5589172;31;34708;-63
2022/04/13 02:18:08;;;;;;;12.52;6.65;;;;;;;4.05;90.68;100985.00;5589100;31;34273;-63
2022/04/13 02:21:10;;;;;;;10.75;6.30;;;;;;;4.02;91.33;100991.28;5589415;31;33777;-63
2022/04/13 02:24:14;;;;;;;12.05;6.93;;;;;;;4.01;91.24;100994.03;5588312;31;33878;-64
2022/04/13 02:27:16;;;;;;;12.15;6.72;;;;;;;4.18;90.86;100993.63;5588778;31;34615;-64
2022/04/13 02:30:19;;;;;;;11.48;6.82;;;;;;;4.21;90.75;100996.06;5589304;31;33923;-64
2022/04/13 02:33:22;;;;;;;10.88;6.68;;;;;;;4.04;91.38;100992.03;5589084;31;34119;-63
2022/04/13 02:36:25;;;;;;;9.75;6.57;;;;;;;4.07;91.61;100989.16;5588183;31;32555;-64
2022/04/13 02:39:27;;;;;;;11.68;6.15;;;;;;;4.08;91.50;100982.97;5588748;31;33897;-64
2022/04/13 02:42:34;;;;;;;10.40;6.07;;;;;;;3.94;92.34;100986.59;5589020;31;33932;-64
2022/04/13 02:45:36;;;;;;;7.95;5.90;;;;;;;3.91;91.97;100996.50;5588702;31;33864;-63
2022/04/13 02:48:39;;;;;;;12.50;6.22;;;;;;;3.89;91.70;100990.50;5588637;31;34531;-64
2022/04/13 02:51:42;;;;;;;8.60;5.60;;;;;;;3.97;90.57;100989.97;5588970;31;34346;-64
2022/04/13 02:54:45;;;;;;;10.98;6.53;;;;;;;3.96;90.64;100996.16;5588524;31;34160;-65
2022/04/13 02:57:47;;;;;;;11.27;6.43;;;;;;;3.79;91.66;100999.97;5588824;31;34435;-64
2022/04/13 03:00:50;;;;;;;13.65;7.07;;;;;;;3.69;92.56;100999.78;5588389;31;33843;-64
2022/04/13 03:03:53;;;;;;;13.20;6.37;;;;;;;3.64;93.55;100999.28;5588517;31;33967;-64
2022/04/13 03:06:56;;;;;;;10.48;6.55;;;;;;;3.57;93.86;101000.69;5587557;31;33949;-64
2022/04/13 03:10:00;;;;;;;14.15;6.85;;;;;;;3.50;93.65;100987.13;5588157;31;34533;-64
2022/04/13 03:13:03;;;;;;;13.07;7.30;;;;;;;3.39;94.10;100986.19;5589825;31;33251;-63
2022/04/13 03:16:06;;;;;;;12.88;6.65;;;;;;;3.45;95.04;100997.13;5590911;31;34127;-64
2022/04/13 03:19:09;;;;;;;10.68;6.15;;;;;;;3.42;95.27;100991.25;5590222;31;32776;-64
2022/04/13 03:22:12;;;;;;;11.63;6.78;;;;;;;3.42;95.09;100991.25;5591086;31;34495;-64
2022/04/13 03:25:19;;;;;;;13.80;6.70;;;;;;;3.55;94.27;101001.72;5590854;31;33782;-63
2022/04/13 03:28:23;;;;;;;10.50;6.25;;;;;;;3.65;94.32;100997.50;5589766;31;33102;-64
2022/04/13 03:31:26;;;;;;;12.77;6.93;;;;;;;3.54;94.61;101005.28;5591067;31;35009;-64
2022/04/13 03:34:30;;;;;;;12.23;6.55;;;;;;;3.50;94.77;101007.28;5590964;31;34001;-65
2022/04/13 03:37:33;;;;;;;12.25;7.12;;;;;;;3.36;94.70;101010.03;5590583;31;33887;-63
2022/04/13 03:40:35;;;;;;;10.50;6.65;;;;;;;3.64;91.49;101008.94;5590593;31;33920;-62
2022/04/13 03:43:38;;;;;;;9.57;6.03;;;;;;;3.69;91.54;101018.16;5590749;31;34311;-63
2022/04/13 03:46:41;;;;;;;13.40;6.50;;;;;;;3.64;91.39;101017.66;5590695;31;33856;-63
2022/04/13 03:49:44;;;;;;;13.00;6.55;;;;;;;3.56;91.69;101019.97;5590050;31;33291;-63
2022/04/13 03:52:47;;;;;;;10.88;5.90;;;;;;;3.57;91.25;101023.44;5590483;31;34169;-64
2022/04/13 03:55:49;;;;;;;9.27;6.00;;;;;;;3.55;90.92;101025.31;5590505;31;33903;-65
2022/04/13 03:58:52;;;;;;;12.85;5.93;;;;;;;3.56;91.98;101027.00;5590802;31;33929;-64
2022/04/13 04:01:55;;;;;;;11.40;6.45;;;;;;;3.56;91.52;101034.88;5590759;31;33904;-64
2022/04/13 04:05:01;;;;;;;10.50;5.53;;;;;;;3.37;92.05;101036.16;5590514;31;33852;-64
2022/04/13 04:08:07;;;;;;;11.75;6.43;;;;;;;3.28;92.59;101041.19;5590467;31;34053;-64
2022/04/13 04:11:09;;;;;;;9.80;5.90;;;;;;;3.37;91.70;101040.56;5590370;31;33855;-64
2022/04/13 04:14:12;;;;;;;9.60;5.68;;;;;;;3.35;91.45;101051.16;5589723;31;33297;-64
2022/04/13 04:17:15;;;;;;;13.32;6.30;;;;;;;3.46;91.36;101046.00;5590334;31;33824;-65
2022/04/13 04:20:17;;;;;;;12.75;6.32;;;;;;;3.43;91.34;101046.22;5590047;31;34246;-65
2022/04/13 04:23:20;;;;;;;11.70;6.12;;;;;;;3.63;90.20;101044.00;5589262;31;33014;-64
2022/04/13 04:26:23;;;;;;;10.18;5.72;;;;;;;3.59;89.71;101047.75;5589470;31;33954;-65
2022/04/13 04:29:25;;;;;;;14.25;5.90;;;;;;;3.56;89.70;101051.47;5590159;31;33905;-63
2022/04/13 04:32:28;;;;;;;13.18;6.60;;;;;;;3.57;90.04;101049.69;5589555;31;33402;-64
2022/04/13 04:35:31;;;;;;;12.85;6.87;;;;;;;3.54;90.84;101055.97;5589279;31;33822;-63
2022/04/13 04:38:33;;;;;;;13.52;6.18;;;;;;;3.68;89.64;101068.16;5590177;31;35112;-63
2022/04/13 04:41:36;;;;;;;10.07;5.75;;;;;;;3.75;88.96;101053.63;5589493;31;33407;-63
2022/04/13 04:44:39;;;;;;;11.18;6.15;;;;;;;3.84;88.44;101058.22;5590126;31;34577;-64
2022/04/13 04:47:42;;;;;;;13.38;5.40;;;;;;;4.01;87.18;101060.50;5576050;31;34300;-64
2022/04/13 04:50:45;;;;;;;8.85;5.50;;;;;;;4.11;87.17;101061.53;5589967;31;34210;-64
2022/04/13 04:53:48;;;;;;;12.18;6.43;;;;;;;4.15;86.98;101068.25;5576067;31;34580;-64
2022/04/13 04:56:50;;;;;;;13.55;6.93;;;;;;;4.45;85.56;101070.44;5589407;31;32415;-64
2022/04/13 04:59:53;;;;;;;11.88;6.18;;;;;;;4.87;82.01;101074.31;5588433;31;32392;-63
2022/04/13 05:02:56;;;;;;;13.32;7.30;;;;;;;4.83;81.61;101075.50;5589734;31;34560;-63
2022/04/13 05:05:59;;;;;;;12.13;7.00;;;;;;;4.79;81.76;101079.31;5589739;31;34131;-63
2022/04/13 05:09:02;;;;;;;10.20;6.43;;;;;;;4.84;81.35;101089.50;5589375;31;32614;-64
2022/04/13 05:12:05;;;;;;;11.40;6.25;;;;;;;4.92;80.92;101093.22;5590010;31;33939;-64
2022/04/13 05:15:08;;;;;;;10.10;6.47;;;;;;;5.02;80.24;101083.69;5588801;31;32678;-64
2022/04/13 05:18:12;;;;;;;10.18;5.97;;;;;;;5.14;79.86;101095.06;5589302;31;33980;-63
2022/04/13 05:21:14;;;;;;;8.90;6.03;;;;;;;5.32;78.55;101093.69;5588669;31;34082;-63
2022/04/13 05:24:17;;;;;;;13.48;6.78;;;;;;;5.27;77.22;101098.47;5589389;31;33902;-63
2022/04/13 05:27:20;;;;;;;12.20;6.40;;;;;;;5.61;76.40;101091.47;5588339;31;32575;-64
2022/04/13 05:30:23;;;;;;;11.32;5.95;;;;;;;5.61;75.48;101097.56;5588822;31;32220;-63
2022/04/13 05:33:26;;;;;;;10.40;5.68;;;;;;;5.66;75.45;101097.22;5588314;31;33904;-63
2022/04/13 05:36:29;;;;;;;11.50;5.22;;;;;;;5.82;74.12;101110.84;5588319;31;33530;-63
2022/04/13 05:39:31;;;;;;;13.98;5.87;;;;;;;5.98;72.90;101113.16;5588433;31;32084;-64
2022/04/13 05:42:34;;;;;;;11.80;5.93;;;;;;;6.09;72.13;101121.06;5588751;31;33936;-64
2022/04/13 05:45:37;;;;;;;12.43;6.22;;;;;;;6.25;69.05;101116.22;5588545;31;32465;-63
2022/04/13 05:48:40;;;;;;;9.88;5.72;;;;;;;6.30;69.42;101123.75;5589121;31;33923;-64
2022/04/13 05:51:43;;;;;;;16.52;5.97;;;;;;;6.33;68.24;101123.53;5589124;31;35127;-63
2022/04/13 05:54:45;;;;;;;13.40;6.35;;;;;;;6.40;68.03;101117.63;5588112;31;32228;-64
2022/04/13 05:57:48;;;;;;;13.05;5.90;;;;;;;6.67;68.50;101119.88;5589008;31;33837;-63
2022/04/13 06:00:52;;;;;;;15.38;6.68;;;;;;;6.72;68.57;101117.69;5588959;31;34798;-63
2022/04/13 06:03:54;;;;;;;8.75;5.45;;;;;;;6.78;68.28;101132.16;5588091;31;34673;-64
2022/04/13 06:06:59;;;;;;;11.05;5.53;;;;;;;7.05;65.87;101122.00;5587262;31;33305;-64
2022/04/13 06:10:04;;;;;;;14.15;5.47;;;;;;;7.10;65.95;101134.81;5587891;31;34163;-64
2022/04/13 06:13:07;;;;;;;11.25;4.97;;;;;;;7.14;62.51;101133.56;5588671;31;34663;-64
2022/04/13 06:16:10;;;;;;;11.25;5.28;;;;;;;7.37;62.25;101135.97;5588774;31;33852;-64
2022/04/13 06:19:12;;;;;;;11.02;5.20;;;;;;;7.47;60.60;101138.66;5587811;31;32274;-63
2022/04/13 06:22:15;;;;;;;8.10;4.82;;;;;;;7.57;61.36;101144.00;5587911;31;33359;-64
2022/04/13 06:25:18;;;;;;;11.00;5.25;;;;;;;7.85;58.95;101132.75;5574769;31;32559;-64
2022/04/13 06:28:21;;;;;;;12.75;5.40;;;;;;;7.98;58.87;101141.31;5574852;31;32504;-66
2022/04/13 06:31:24;;;;;;;8.63;5.30;;;;;;;8.01;59.38;101145.50;5588635;31;34140;-64
2022/04/13 06:34:27;;;;;;;10.82;4.60;;;;;;;8.12;57.93;101148.06;5588003;31;32514;-63
2022/04/13 06:37:30;;;;;;;11.75;4.90;;;;;;;8.53;57.06;101155.84;5587892;31;32434;-64
2022/04/13 06:40:33;;;;;;;9.77;5.57;;;;;;;8.70;55.88;101146.44;5588347;31;34591;-65
2022/04/13 06:43:36;;;;;;;8.32;4.97;;;;;;;9.09;54.06;101158.72;5574871;31;32428;-65
2022/04/13 06:46:39;;;;;;;7.82;4.75;;;;;;;9.41;53.08;101158.41;5591075;31;34488;-64
2022/04/13 06:49:42;;;;;;;8.32;4.62;;;;;;;10.29;50.30;101155.41;5590580;31;33975;-64
2022/04/13 06:52:45;;;;;;;10.60;5.15;;;;;;;10.86;47.86;101156.88;5577247;31;32694;-65
2022/04/13 06:55:48;;;;;;;8.75;4.78;;;;;;;11.96;46.34;101151.94;5590840;31;33956;-65
2022/04/13 06:58:51;;;;;;;11.02;5.68;;;;;;;12.49;45.33;101143.69;5590122;31;32802;-65
2022/04/13 07:01:53;;;;;;;8.55;4.90;;;;;;;13.61;41.19;101156.50;5590245;31;34668;-65
2022/04/13 07:04:57;;;;;;;10.13;5.25;;;;;;;14.21;40.01;101154.19;5590708;31;34531;-66
2022/04/13 07:08:00;;;;;;;8.45;4.78;;;;;;;14.02;41.48;101146.59;5589943;31;34274;-65
2022/04/13 07:11:03;;;;;;;8.25;5.07;;;;;;;14.40;38.38;101155.66;5590573;31;34557;-66
2022/04/13 07:14:06;;;;;;;8.18;4.57;;;;;;;13.76;40.24;101158.31;5589548;31;32994;-66
2022/04/13 07:17:09;;;;;;;10.05;5.12;;;;;;;15.40;36.80;101157.34;5590300;31;33833;-66
2022/04/13 07:20:13;;;;;;;9.52;4.85;;;;;;;14.91;38.12;101156.91;5589714;31;33273;-66
2022/04/13 07:23:16;;;;;;;8.43;5.25;;;;;;;15.35;37.51;101167.72;5590162;31;34012;-65
2022/04/13 07:26:19;;;;;;;9.07;4.80;;;;;;;15.75;36.49;101166.56;5590378;31;34540;-67
2022/04/13 07:29:22;;;;;;;10.45;4.62;;;;;;;16.85;33.29;101163.75;5590563;31;34245;-68
2022/04/13 07:32:24;;;;;;;9.15;4.95;;;;;;;17.18;34.04;101166.81;5589956;31;33182;-66
2022/04/13 07:35:29;;;;;;;8.85;4.43;;;;;;;17.37;32.75;101168.00;5589716;31;32489;-66
2022/04/13 07:38:31;;;;;;;6.93;4.35;;;;;;;17.49;30.72;101163.75;5589708;31;32137;-66
2022/04/13 07:41:34;;;;;;;6.97;4.35;;;;;;;17.79;30.97;101162.59;5590454;31;33989;-66
2022/04/13 07:44:37;;;;;;;8.43;4.43;;;;;;;16.78;32.73;101162.03;5589273;31;33070;-67
2022/04/13 07:48:00;;;;;;;4.90;3.47;;;;;;;17.31;32.56;101160.72;5590345;31;35127;-66
2022/04/13 07:51:02;;;;;;;6.85;4.12;;;;;;;17.79;32.05;101154.53;5589583;31;33474;-67
2022/04/13 07:54:05;;;;;;;6.37;3.95;;;;;;;18.66;30.07;101173.63;5590424;31;34423;-65
2022/04/13 07:57:28;;;;;;;9.27;3.83;;;;;;;19.39;29.22;101165.72;5589083;31;34120;-66
2022/04/13 08:00:31;;;;;;;5.05;3.47;;;;;;;20.53;28.28;101161.63;5589356;31;34002;-68
2022/04/13 08:03:34;;;;;;;5.55;3.58;;;;;;;21.22;27.11;101163.53;5590609;31;34300;-69
2022/04/13 08:06:39;;;;;;;4.62;3.47;;;;;;;22.04;24.73;101168.66;5576807;31;32655;-68
2022/04/13 08:09:43;;;;;;;5.78;3.60;;;;;;;19.79;26.50;101175.47;5589252;31;33177;-66
2022/04/13 08:12:48;;;;;;;5.57;3.53;;;;;;;20.46;25.54;101163.53;5589628;31;33168;-66
2022/04/13 08:15:51;;;;;;;5.72;3.60;;;;;;;19.79;27.26;101171.94;5589098;31;33634;-66
2022/04/13 08:18:54;;;;;;;4.55;3.33;;;;;;;18.40;27.31;101165.41;5588965;31;32426;-67
2022/04/13 08:21:57;;;;;;;8.05;3.42;;;;;;;18.93;26.21;101163.78;5576071;31;32619;-66
2022/04/13 08:24:59;;;;;;;10.93;3.28;;;;;;;20.66;25.88;101168.84;5589554;31;33852;-67
2022/04/13 08:28:02;;;;;;;6.60;3.00;;;;;;;19.39;27.51;101168.41;5590168;31;33839;-67
2022/04/13 08:31:07;;;;;;;4.62;2.90;;;;;;;20.76;24.23;101164.62;5589422;31;32794;-67
2022/04/13 08:34:10;;;;;;;4.72;3.10;;;;;;;20.13;24.88;101169.00;5588632;31;33006;-67
2022/04/13 08:37:13;;;;;;;8.48;3.05;;;;;;;20.58;24.85;101160.97;5589176;31;33579;-67
2022/04/13 08:40:17;;;;;;;5.68;3.10;;;;;;;19.90;25.05;101163.22;5588765;31;33948;-67
2022/04/13 08:43:44;;;;;;;4.65;2.92;;;;;;;21.89;22.99;101154.66;5590184;31;33871;-67
2022/04/13 08:46:53;;;;;;;5.10;3.33;;;;;;;23.57;21.91;101155.63;5589496;31;33869;-67
2022/04/13 08:49:57;;;;;;;7.18;3.20;;;;;;;22.57;22.71;101151.00;5588889;31;33856;-67
2022/04/13 08:53:20;;;;;;;4.97;3.30;;;;;;;23.81;21.17;101156.44;5588547;31;33573;-67
2022/04/13 08:56:23;;;;;;;5.20;3.10;;;;;;;24.68;20.26;101149.94;5588421;31;33402;-67
2022/04/13 08:59:49;;;;;;;4.30;2.08;;;;;;;21.82;23.76;101156.63;5589392;31;34664;-67
2022/04/13 09:03:16;;;;;;;6.90;1.87;;;;;;;22.38;20.83;101155.59;5588843;31;32530;-67
2022/04/13 09:06:25;;;;;;;3.90;2.10;;;;;;;22.51;21.24;101147.34;5588838;31;32419;-68
2022/04/13 09:09:31;;;;;;;4.60;2.50;;;;;;;22.07;21.49;101156.59;5587933;31;33381;-67
2022/04/13 09:12:36;;;;;;;3.55;2.05;;;;;;;18.60;24.14;101155.59;5588959;31;34063;-67
2022/04/13 09:15:40;;;;;;;3.35;2.15;;;;;;;21.40;21.93;101151.97;5588633;31;33430;-67
2022/04/13 09:18:49;;;;;;;4.07;2.40;;;;;;;20.44;23.10;101152.13;5576333;31;32526;-66
2022/04/13 09:21:52;;;;;;;4.72;3.12;;;;;;;18.24;25.32;101144.28;5588154;31;33022;-66
2022/04/13 09:24:57;;;;;;;4.60;2.40;;;;;;;16.95;27.02;101148.19;5589159;31;33286;-67
2022/04/13 09:28:01;;;;;;;7.95;2.53;;;;;;;16.71;27.27;101145.03;5588150;31;33940;-66
2022/04/13 09:31:04;;;;;;;5.15;3.05;;;;;;;15.84;29.56;101136.88;5588377;31;32861;-66
2022/04/13 09:34:08;;;;;;;6.45;3.15;;;;;;;14.44;30.73;101147.12;5588676;31;33313;-65
2022/04/13 09:37:11;;;;;;;5.00;3.20;;;;;;;15.15;30.42;101144.16;5588382;31;32922;-66
2022/04/13 09:40:34;;;;;;;6.75;3.67;;;;;;;16.80;28.17;101138.53;5588908;31;34208;-66
2022/04/13 09:43:38;;;;;;;8.02;4.28;;;;;;;16.94;28.56;101140.38;5587990;31;32512;-65
2022/04/13 09:46:42;;;;;;;8.27;4.12;;;;;;;17.47;27.22;101135.47;5589191;31;33977;-66
2022/04/13 09:49:47;;;;;;;6.05;4.03;;;;;;;17.18;28.11;101129.25;5588439;31;32447;-65
2022/04/13 09:52:52;;;;;;;8.38;4.03;;;;;;;15.91;31.08;101127.12;5588587;31;32316;-65
2022/04/13 09:56:01;;;;;;;5.65;3.70;;;;;;;16.00;30.69;101125.16;5588412;31;33863;-64
2022/04/13 09:59:05;;;;;;;5.85;3.72;;;;;;;15.88;31.11;101126.62;5588454;31;34032;-67
2022/04/13 10:02:08;;;;;;;7.35;4.03;;;;;;;15.17;30.75;101130.62;5589153;31;34456;-65
2022/04/13 10:05:14;;;;;;;6.12;3.55;;;;;;;15.15;32.60;101120.09;5588431;31;33239;-66
2022/04/13 10:08:22;;;;;;;6.32;3.75;;;;;;;15.07;31.09;101128.19;5587701;31;32838;-65
2022/04/13 10:11:25;;;;;;;8.90;3.83;;;;;;;15.08;31.10;101123.69;5588288;31;32412;-65
2022/04/13 10:14:28;;;;;;;6.12;3.75;;;;;;;14.38;32.93;101122.97;5587845;31;33377;-65
2022/04/13 10:17:33;;;;;;;7.93;4.15;;;;;;;14.98;33.33;101112.41;5588096;31;33620;-65
2022/04/13 10:20:42;;;;;;;8.52;3.50;;;;;;;15.18;32.36;101121.59;5587233;31;34089;-65
2022/04/13 10:23:45;;;;;;;7.37;3.75;;;;;;;15.20;32.28;101111.56;5587913;31;35145;-65
2022/04/13 10:27:08;;;;;;;6.28;3.65;;;;;;;14.89;30.92;101102.78;5581027;31;226663;-66
2022/04/13 10:30:12;;;;;;;5.95;3.97;;;;;;;15.31;33.54;101108.44;5572256;31;32381;-65
2022/04/13 10:33:15;;;;;;;8.85;4.25;;;;;;;15.17;32.01;101107.41;5588456;31;34510;-65
2022/04/13 10:36:19;;;;;;;7.72;4.00;;;;;;;15.16;31.58;101100.41;5588156;31;33919;-65
2022/04/13 10:39:21;;;;;;;8.70;3.80;;;;;;;15.47;32.09;101088.75;5588308;31;34651;-65
2022/04/13 10:42:30;;;;;;;6.37;3.40;;;;;;;15.66;32.25;101088.25;5588149;31;33836;-64
2022/04/13 10:45:34;;;;;;;7.37;3.83;;;;;;;18.40;28.27;101079.44;5586652;31;34750;-66
2022/04/13 10:48:40;;;;;;;9.27;3.85;;;;;;;21.98;23.10;101079.56;5587793;31;33963;-65
2022/04/13 10:51:45;;;;;;;8.35;3.90;;;;;;;22.30;22.11;101077.53;5587381;31;33604;-66
2022/04/13 10:54:53;;;;;;;6.72;3.72;;;;;;;25.78;19.31;101075.22;5588100;31;33962;-66
2022/04/13 10:58:27;;;;;;;5.20;3.47;;;;;;;27.55;16.63;101068.88;5587722;31;34291;-66
2022/04/13 11:01:48;;;;;;;6.28;4.20;;;;;;;24.65;19.59;101062.75;5580127;31;33760;-66
2022/04/13 11:04:53;;;;;;;7.57;3.95;;;;;;;26.32;17.73;101066.12;5588335;31;34023;-67
2022/04/13 11:08:14;;;;;;;6.87;3.83;;;;;;;24.88;19.23;101059.97;5588022;31;33937;-66
2022/04/13 11:11:22;;;;;;;9.52;4.32;;;;;;;26.91;18.71;101055.31;5587934;31;34462;-66
2022/04/13 11:14:26;;;;;;;7.60;4.40;;;;;;;28.51;16.25;101061.16;5588189;31;34572;-68
2022/04/13 11:17:29;;;;;;;7.47;4.18;;;;;;;26.82;17.89;101060.37;5587431;31;34532;-67
2022/04/13 11:20:32;;;;;;;6.55;3.95;;;;;;;28.52;16.17;101051.84;5586957;31;33179;-68
2022/04/13 11:23:48;;;;;;;11.63;4.35;;;;;;;30.08;15.36;101037.22;5587784;31;33806;-67
2022/04/13 11:26:54;;;;;;;7.22;4.45;;;;;;;28.30;17.39;101043.91;5587040;31;33246;-68
2022/04/13 11:29:58;;;;;;;8.70;4.35;;;;;;;30.04;14.70;101040.78;5586611;31;34478;-68
2022/04/13 11:33:01;;;;;;;7.05;4.15;;;;;;;30.22;14.69;101037.41;5590809;31;34585;-69
2022/04/13 11:36:09;;;;;;;9.02;4.68;;;;;;;25.64;18.55;101033.16;5590302;31;34271;-67
2022/04/13 11:39:50;;;;;;;7.00;4.30;;;;;;;26.44;18.12;101035.22;5590527;31;34044;-69
2022/04/13 11:42:53;;;;;;;7.40;4.57;;;;;;;27.35;17.37;101025.97;5576324;31;32380;-69
2022/04/13 11:45:59;;;;;;;7.00;4.68;;;;;;;27.66;17.71;101022.34;5589468;31;33781;-68
2022/04/13 11:49:03;;;;;;;6.55;4.30;;;;;;;29.04;15.53;101018.88;5590489;31;34650;-68
2022/04/13 11:52:43;;;;;;;6.37;4.45;;;;;;;28.62;16.69;101027.28;5589396;31;33102;-68
2022/04/13 11:55:46;;;;;;;10.02;5.50;;;;;;;30.72;14.11;101024.53;5589927;31;34353;-67
2022/04/13 11:58:49;;;;;;;10.30;5.50;;;;;;;28.96;15.55;101016.69;5590020;31;34090;-68
2022/04/13 12:01:53;;;;;;;6.68;5.00;;;;;;;29.23;16.15;101016.37;5589437;31;34638;-67
2022/04/13 12:04:59;;;;;;;8.50;4.87;;;;;;;31.37;13.80;101020.41;5589370;31;33298;-67
2022/04/13 12:08:09;;;;;;;7.85;4.53;;;;;;;29.74;14.86;101003.41;5589112;31;32351;-67
2022/04/13 12:11:13;;;;;;;8.57;5.62;;;;;;;29.46;15.66;101001.31;5589855;31;34508;-68
2022/04/13 12:14:27;;;;;;;6.25;4.65;;;;;;;29.98;15.75;100998.12;5589470;31;34264;-68
2022/04/13 12:17:31;;;;;;;7.72;4.87;;;;;;;32.63;12.61;100993.22;5575929;31;32719;-68
2022/04/13 12:20:34;;;;;;;8.00;4.90;;;;;;;31.56;13.41;100995.78;5589212;31;33951;-68
2022/04/13 12:23:38;;;;;;;7.10;4.68;;;;;;;27.92;16.24;100985.09;5589981;31;34255;-70
2022/04/13 12:26:44;;;;;;;8.45;4.70;;;;;;;30.30;15.21;100981.25;5589888;31;33958;-67
2022/04/13 12:29:47;;;;;;;8.50;5.03;;;;;;;31.35;14.56;100982.28;5589765;31;33811;-68
2022/04/13 12:32:50;;;;;;;6.70;4.37;;;;;;;33.39;13.89;100967.97;5575910;31;32316;-68
2022/04/13 12:36:01;;;;;;;7.35;4.72;;;;;;;37.08;10.61;100968.09;5588610;31;32411;-68
2022/04/13 12:39:09;;;;;;;7.80;5.20;;;;;;;35.41;11.45;100965.06;5589159;31;33666;-67
2022/04/13 12:42:22;;;;;;;7.62;4.72;;;;;;;32.41;13.47;100960.06;5589617;31;34582;-69
2022/04/13 12:45:29;;;;;;;7.55;5.22;;;;;;;30.15;14.71;100952.91;5589146;31;32403;-69
2022/04/13 12:48:32;;;;;;;9.20;5.05;;;;;;;33.01;12.74;100948.03;5589081;31;32641;-68
2022/04/13 12:51:37;;;;;;;9.60;4.57;;;;;;;30.71;14.71;100951.66;5589264;31;32335;-68
2022/04/13 12:54:41;;;;;;;8.23;5.22;;;;;;;31.16;13.47;100943.03;5588939;31;33213;-69
2022/04/13 12:57:44;;;;;;;8.05;4.82;;;;;;;32.63;12.46;100935.53;5589554;31;33944;-68
2022/04/13 13:00:54;;;;;;;7.97;5.40;;;;;;;34.28;11.38;100939.88;5588885;31;34172;-68
2022/04/13 13:03:59;;;;;;;9.10;5.20;;;;;;;30.85;14.11;100933.44;5588791;31;32283;-68
2022/04/13 13:07:06;;;;;;;7.45;5.25;;;;;;;27.82;17.05;100916.06;5588695;31;34854;-69
2022/04/13 13:10:09;;;;;;;9.45;4.70;;;;;;;28.41;15.95;100913.75;5589450;31;33906;-68
2022/04/13 13:13:19;;;;;;;7.28;4.80;;;;;;;30.34;15.61;100913.88;5588825;31;32539;-68
2022/04/13 13:16:32;;;;;;;9.10;5.50;;;;;;;28.23;16.37;100914.25;5589526;31;33918;-69
2022/04/13 13:19:35;;;;;;;8.27;4.62;;;;;;;28.17;16.72;100904.44;5589023;31;33163;-68
2022/04/13 13:22:46;;;;;;;6.53;4.47;;;;;;;33.69;12.00;100910.69;5588922;31;34506;-68
2022/04/13 13:25:49;;;;;;;8.85;4.22;;;;;;;35.05;11.00;100912.00;5588727;31;32285;-68
2022/04/13 13:28:52;;;;;;;7.47;4.95;;;;;;;32.90;12.28;100905.38;5589297;31;33980;-69
2022/04/13 13:31:55;;;;;;;6.53;4.43;;;;;;;30.39;14.12;100900.16;5589469;31;33959;-68
2022/04/13 13:35:00;;;;;;;6.82;4.32;;;;;;;34.12;12.59;100909.13;5587797;31;32684;-69
2022/04/13 13:38:18;;;;;;;6.43;4.25;;;;;;;33.78;12.27;100897.81;5588749;31;33232;-68
2022/04/13 13:41:21;;;;;;;6.55;3.85;;;;;;;34.21;11.63;100901.78;5588103;31;32769;-68
2022/04/13 13:44:24;;;;;;;9.27;4.65;;;;;;;34.34;11.81;100895.38;5588701;31;35192;-68
2022/04/13 13:47:27;;;;;;;8.82;5.50;;;;;;;33.04;11.73;100881.44;5589278;31;33910;-68
2022/04/13 13:50:32;;;;;;;7.57;5.30;;;;;;;32.98;12.56;100881.84;5588273;31;33049;-67
2022/04/13 13:53:35;;;;;;;7.05;4.97;;;;;;;32.26;13.17;100875.97;5587869;31;34839;-68
2022/04/13 13:56:38;;;;;;;10.43;5.45;;;;;;;36.51;9.95;100876.28;5588912;31;34631;-69
2022/04/13 13:59:41;;;;;;;8.07;5.15;;;;;;;33.59;11.89;100875.94;5588116;31;33569;-70
2022/04/13 14:02:52;;;;;;;8.43;5.22;;;;;;;30.60;13.90;100866.84;5588885;31;33856;-69
2022/04/13 14:05:57;;;;;;;8.57;5.22;;;;;;;31.68;13.91;100870.81;5587957;31;32838;-68
2022/04/13 14:08:59;;;;;;;7.70;5.47;;;;;;;30.49;14.43;100869.97;5587827;31;33130;-68
2022/04/13 14:12:02;;;;;;;7.80;5.28;;;;;;;30.79;13.56;100864.19;5587637;31;32959;-66
2022/04/13 14:15:06;;;;;;;9.52;5.95;;;;;;;31.75;13.06;100860.31;5588552;31;33899;-67
2022/04/13 14:18:09;;;;;;;10.18;5.35;;;;;;;29.61;14.80;100854.44;5587257;31;32312;-68